Dogue, VA

7:48 AM EDT on August 23, 2014 (GMT -0400)
Shannon | Change Station
CLOSE
Current Station
Airport
Location: Fredericksburg,
Elevation: 85 ft
Nearby Weather Stations

Elev 85 ft 38.27 °N, 77.45 °W | Updated 13 minutes ago

Light Rain
Light Rain
71 °F
Feels Like 71 °F
N
5
Wind Variable Wind from ENE

Today
High -- | Low -- °F
--% Chance of Precip.
Yesterday
High -- | Low -- °F
Precip. -- in
6:30 AM 7:51 PM
Waning Crescent, 4% visible
Pressure 30.00 in
Visibility 10.0 miles
Clouds Mostly Cloudy 8000 ft
Dew Point 71 °F
Humidity 100%
Rainfall 0.00 in
Snow Depth Not available.
UV 0 out of 12
Pollen 7.10 out of 12
Air Quality Not available.
Flu Activity Not available.
METAR KEZF 231135Z AUTO 06004KT 10SM -RA BKN080 22/22 A3000 RMK AO2 T02170217

More Conditions Fewer Conditions

Pressure 30.00 in
Visibility 10.0 miles
Clouds Mostly Cloudy 8000 ft
Dew Point 71 °F
Humidity 100%
Rainfall 0.00 in
Snow Depth Not available.
UV 0 out of 12
Pollen 7.10 out of 12
Air Quality Not available.
Flu Activity Not available.
METAR KEZF 231135Z AUTO 06004KT 10SM -RA BKN080 22/22 A3000 RMK AO2 T02170217

More Conditions Fewer Conditions

10-Day Weather Forecast

Almanac

Astronomy

Aug. 23, 2014 Rise Set
Actual Time 6:30 AM EDT 7:51 PM EDT
Civil Twilight 6:03 AM EDT 8:19 PM EDT
Nautical Twilight 5:29 AM EDT 8:52 PM EDT
Astronomical Twilight 4:55 AM EDT 9:26 PM EDT
Moon 4:45 AM EDT 6:34 PM EDT
Length of Visible Light 14h 16m
Length of Day
13h 21m
Tomorrow will be 2m 17s shorter.
Waning Crescent, 4% of the Moon is Illuminated
Today
Waning Crescent
Aug 25
New
Sep 2
First Quarter
Sep 8
Full
Sep 15
Last Quarter

Today's Extremes

State Highs State Lows

Community

WunderPhotos

Upload Photos

1,746,419 photos uploaded!

WunderBlogs® & News

By Dr. Jeff Masters
Director of Meteorology, Weather Underground
By Kari Strenfel
Meteorologist, Weather Underground
By Christopher C. Burt
Weather Historian, Weather Underground
August 23, 2014
August 23, 2014
August 23, 2014

Nearby

Snow Depth

Station Depth Elevation
No new snow has been reported.

Earthquake Activity

City Distance Mag. Time & Date
No recent earthquake activity has been reported nearby.
Minimum magnitude displayed is 2.5.

Coastal Water Temperatures

Place Temperature
Washington, DC 79.0 °F
Lewisetta, VA 78.1 °F
Solomons Island, MD 80.1 °F

Nearby Weather Stations